createdAt,value
2023-05-10T00:01:25.504Z,42.10
2023-05-10T00:03:55.005Z,37.33
2023-05-10T00:06:25.028Z,33.28
2023-05-10T00:08:55.554Z,39.65
2023-05-10T00:11:25.413Z,43.05
2023-05-10T00:13:54.769Z,46.17
2023-05-10T00:16:23.402Z,48.55
2023-05-10T00:18:54.400Z,45.38
2023-05-10T00:21:22.729Z,44.42
2023-05-10T00:23:52.141Z,41.92
2023-05-10T00:26:21.662Z,40.75
2023-05-10T00:28:54.099Z,57.80
2023-05-10T00:31:23.627Z,51.80
2023-05-10T00:33:53.831Z,52.17
2023-05-10T00:36:24.512Z,46.97
2023-05-10T00:38:53.954Z,64.55
2023-05-10T00:41:23.377Z,48.30
2023-05-10T00:46:21.726Z,50.58
2023-05-10T00:48:50.820Z,42.00
2023-05-10T00:51:20.677Z,48.65
2023-05-10T00:53:49.114Z,58.05
2023-05-10T00:56:18.870Z,51.72
2023-05-10T00:58:48.356Z,44.45
2023-05-10T01:01:16.676Z,45.03
2023-05-10T01:03:49.206Z,46.60
2023-05-10T01:06:19.942Z,47.35
2023-05-10T01:08:50.890Z,41.72
2023-05-10T01:11:19.682Z,44.35
2023-05-10T01:13:54.657Z,38.25
2023-05-10T01:16:24.848Z,47.03
2023-05-10T01:18:55.076Z,49.42
2023-05-10T01:21:35.169Z,51.85
2023-05-10T01:24:29.029Z,52.30
2023-05-10T01:27:45.043Z,49.35
2023-05-10T01:30:52.804Z,54.35
2023-05-10T01:33:28.380Z,56.63
2023-05-10T01:36:05.374Z,51.38
2023-05-10T01:38:44.024Z,55.65
2023-05-10T01:41:22.085Z,63.58
2023-05-10T01:44:04.613Z,58.53
2023-05-10T01:46:39.916Z,63.08
2023-05-10T01:49:13.023Z,67.93
2023-05-10T01:51:49.190Z,69.43
2023-05-10T01:54:21.855Z,59.72
2023-05-10T01:56:59.452Z,56.72
2023-05-10T01:59:42.781Z,36.17
2023-05-10T02:02:14.133Z,41.40
2023-05-10T02:04:44.275Z,39.70
2023-05-10T02:07:15.090Z,39.65
2023-05-10T02:09:49.588Z,36.75
2023-05-10T02:12:20.175Z,36.58
2023-05-10T02:14:49.873Z,28.98
2023-05-10T02:17:18.698Z,29.15
2023-05-10T02:19:50.357Z,32.63
2023-05-10T02:22:21.995Z,32.70
2023-05-10T02:24:52.934Z,30.77
2023-05-10T02:27:24.001Z,25.88
2023-05-10T02:29:54.643Z,32.95
2023-05-10T02:32:26.500Z,27.70
2023-05-10T02:34:57.886Z,26.73
2023-05-10T02:37:29.392Z,23.00
2023-05-10T02:40:00.410Z,27.38
2023-05-10T02:42:31.447Z,22.98
2023-05-10T02:45:07.661Z,23.58
2023-05-10T02:47:39.014Z,18.60
2023-05-10T02:50:10.575Z,24.15
2023-05-10T02:52:45.082Z,28.55
2023-05-10T02:55:17.850Z,26.27
2023-05-10T02:57:57.136Z,27.73
2023-05-10T03:00:27.654Z,36.40
2023-05-10T03:02:56.488Z,36.08
2023-05-10T03:05:26.336Z,30.48
2023-05-10T03:07:56.665Z,35.55
2023-05-10T03:10:31.778Z,41.67
2023-05-10T03:13:15.348Z,44.30
2023-05-10T03:15:56.440Z,40.78
2023-05-10T03:18:30.566Z,30.27
2023-05-10T03:21:08.310Z,51.45
2023-05-10T03:23:44.313Z,53.72
2023-05-10T03:26:19.897Z,43.67
2023-05-10T03:28:52.128Z,57.70
2023-05-10T03:31:20.859Z,46.25
2023-05-10T03:33:52.467Z,49.33
2023-05-10T03:36:27.895Z,52.78
2023-05-10T03:38:58.012Z,47.30
2023-05-10T03:41:28.219Z,43.70
2023-05-10T03:43:56.460Z,27.35
2023-05-10T03:46:25.010Z,33.47
2023-05-10T03:48:54.774Z,38.53
2023-05-10T03:51:26.480Z,32.40
2023-05-10T03:53:56.541Z,34.58
2023-05-10T03:56:27.332Z,28.67
2023-05-10T03:58:55.826Z,28.60
2023-05-10T04:01:25.395Z,36.45
2023-05-10T04:03:53.538Z,28.90
2023-05-10T04:06:25.271Z,19.42
2023-05-10T04:08:57.408Z,20.92
2023-05-10T04:11:25.802Z,18.92
2023-05-10T04:13:55.571Z,12.95
2023-05-10T04:16:26.472Z,10.23
2023-05-10T04:18:54.652Z,12.65
2023-05-10T04:21:22.731Z,9.02
2023-05-10T04:23:52.054Z,7.45
2023-05-10T04:26:23.131Z,12.55
2023-05-10T04:28:53.548Z,6.82
2023-05-10T04:31:22.552Z,8.07
2023-05-10T04:33:50.976Z,6.90
2023-05-10T04:36:20.246Z,8.70
2023-05-10T04:38:49.122Z,8.25
2023-05-10T04:41:18.463Z,7.85
2023-05-10T04:43:50.086Z,9.10
2023-05-10T04:46:19.597Z,6.93
2023-05-10T04:48:47.762Z,7.88
2023-05-10T04:51:17.128Z,8.00
2023-05-10T04:53:57.643Z,10.27
2023-05-10T04:56:35.925Z,9.98
2023-05-10T04:59:07.845Z,7.88
2023-05-10T05:01:38.818Z,11.13
2023-05-10T05:04:07.763Z,9.45
2023-05-10T05:06:36.060Z,9.90
2023-05-10T05:09:05.178Z,9.38
2023-05-10T05:11:34.597Z,10.18
2023-05-10T05:14:02.886Z,9.18
2023-05-10T05:19:03.359Z,9.65
2023-05-10T05:21:33.272Z,8.68
2023-05-10T05:24:02.796Z,9.80
2023-05-10T05:26:32.459Z,11.02
2023-05-10T05:29:00.610Z,7.63
2023-05-10T05:31:30.239Z,8.70
2023-05-10T05:34:01.000Z,8.10
2023-05-10T05:36:30.328Z,10.48
2023-05-10T05:39:00.001Z,7.70
2023-05-10T05:43:56.225Z,8.73
2023-05-10T05:46:25.814Z,7.65
2023-05-10T05:48:55.540Z,9.55
2023-05-10T05:51:26.656Z,8.63
2023-05-10T05:53:55.243Z,10.23
2023-05-10T05:56:25.511Z,8.48
2023-05-10T05:58:55.362Z,19.13
2023-05-10T06:01:23.833Z,5.95
2023-05-10T06:03:53.660Z,15.45
2023-05-10T06:06:23.342Z,8.82
2023-05-10T06:08:52.806Z,8.68
2023-05-10T06:11:22.877Z,6.68
2023-05-10T06:13:53.180Z,8.60
2023-05-10T06:18:52.068Z,7.05
2023-05-10T06:21:21.395Z,10.77
2023-05-10T06:23:52.224Z,8.45
2023-05-10T06:26:23.077Z,10.90
2023-05-10T06:28:52.455Z,11.55
2023-05-10T06:31:22.001Z,10.02
2023-05-10T06:36:18.786Z,10.48
2023-05-10T06:38:48.735Z,13.95
2023-05-10T06:41:19.771Z,7.82
2023-05-10T06:43:47.985Z,12.32
2023-05-10T06:46:17.523Z,10.90
2023-05-10T06:48:45.806Z,8.68
2023-05-10T06:51:13.999Z,9.30
2023-05-10T06:53:43.424Z,11.27
2023-05-10T06:56:13.341Z,1149.53
2023-05-10T06:58:44.152Z,888.22
2023-05-10T07:01:13.019Z,746.30
2023-05-10T07:03:43.680Z,663.72
2023-05-10T07:06:21.628Z,241.15
2023-05-10T07:08:56.273Z,17.80
2023-05-10T07:11:26.521Z,62.35
2023-05-10T07:13:57.250Z,515.40
2023-05-10T07:16:26.874Z,515.78
2023-05-10T07:18:58.214Z,166.85
2023-05-10T07:21:29.655Z,11.20
2023-05-10T07:23:58.635Z,14.13
2023-05-10T07:26:29.416Z,12.18
2023-05-10T07:29:00.352Z,9.55
2023-05-10T07:31:29.879Z,8.85
2023-05-10T07:33:58.229Z,10.80
2023-05-10T07:36:30.179Z,14.52
2023-05-10T07:38:59.792Z,13.70
2023-05-10T07:41:29.475Z,11.20
2023-05-10T07:44:00.248Z,12.45
2023-05-10T07:46:31.105Z,10.75
2023-05-10T07:48:59.339Z,13.00
2023-05-10T07:51:30.158Z,13.02
2023-05-10T07:53:59.978Z,14.70
2023-05-10T07:56:32.794Z,16.27
2023-05-10T07:59:05.919Z,16.60
2023-05-10T08:01:36.507Z,15.10
2023-05-10T08:04:05.544Z,17.50
2023-05-10T08:06:35.095Z,19.08
2023-05-10T08:09:04.781Z,57.80
2023-05-10T08:11:35.172Z,556.85
2023-05-10T08:14:07.434Z,608.00
2023-05-10T08:16:36.786Z,20.05
2023-05-10T08:19:05.658Z,279.23
2023-05-10T08:21:35.494Z,19.33
2023-05-10T08:24:05.433Z,23.65
2023-05-10T08:26:35.959Z,19.48
2023-05-10T08:29:06.897Z,13.73
2023-05-10T08:31:35.658Z,19.35
2023-05-10T08:34:05.301Z,20.50
2023-05-10T08:36:36.222Z,24.00
2023-05-10T08:39:07.760Z,18.92
2023-05-10T08:41:45.330Z,21.65
2023-05-10T08:44:16.054Z,18.20
2023-05-10T08:46:49.221Z,17.05
2023-05-10T08:49:21.926Z,16.52
2023-05-10T08:51:56.889Z,14.18
2023-05-10T08:54:26.356Z,19.52
2023-05-10T08:56:56.044Z,24.58
2023-05-10T08:59:25.882Z,26.10
2023-05-10T09:01:57.472Z,26.60
2023-05-10T09:04:27.429Z,19.58
2023-05-10T09:06:57.277Z,23.05
2023-05-10T09:09:28.520Z,23.77
2023-05-10T09:11:58.029Z,24.15
2023-05-10T09:14:29.570Z,21.05
2023-05-10T09:16:59.571Z,24.17
2023-05-10T09:19:28.124Z,23.55
2023-05-10T09:21:57.685Z,23.30
2023-05-10T09:24:30.074Z,26.48
2023-05-10T09:27:00.082Z,31.33
2023-05-10T09:29:41.795Z,25.48
2023-05-10T09:32:13.724Z,22.70
2023-05-10T09:34:44.725Z,24.05
2023-05-10T09:37:14.543Z,23.35
2023-05-10T09:39:42.934Z,22.38
2023-05-10T09:42:13.531Z,26.45
2023-05-10T09:44:44.494Z,22.35
2023-05-10T09:47:19.675Z,20.10
2023-05-10T09:49:52.462Z,19.77
2023-05-10T09:52:23.293Z,21.67
2023-05-10T09:54:56.195Z,19.17
2023-05-10T09:57:28.471Z,16.27
2023-05-10T09:59:59.303Z,18.13
2023-05-10T10:02:31.713Z,19.67
2023-05-10T10:05:05.332Z,18.25
2023-05-10T10:07:34.497Z,19.55
2023-05-10T10:10:03.504Z,18.17
2023-05-10T10:12:33.503Z,21.85
2023-05-10T10:15:07.673Z,16.15
2023-05-10T10:17:40.310Z,22.42
2023-05-10T10:20:12.419Z,19.67
2023-05-10T10:22:40.623Z,20.15
2023-05-10T10:25:15.661Z,23.52
2023-05-10T10:27:57.112Z,20.50
2023-05-10T10:30:33.791Z,14.57
2023-05-10T10:33:38.513Z,15.50
2023-05-10T10:36:08.024Z,11.40
2023-05-10T10:39:00.268Z,10.07
2023-05-10T10:41:33.241Z,11.13
2023-05-10T10:44:40.460Z,11.63
2023-05-10T10:47:29.963Z,11.15
2023-05-10T10:50:10.395Z,12.35
2023-05-10T10:52:42.073Z,7.47
2023-05-10T10:55:12.405Z,10.60
2023-05-10T10:57:49.546Z,10.20
2023-05-10T11:00:38.287Z,10.43
2023-05-10T11:03:09.324Z,11.52
2023-05-10T11:05:42.226Z,12.38
2023-05-10T11:08:18.983Z,12.02
2023-05-10T11:10:55.170Z,9.40
2023-05-10T11:13:31.616Z,7.13
2023-05-10T11:16:03.059Z,8.88
2023-05-10T11:18:34.131Z,7.90
2023-05-10T11:21:07.352Z,9.63
2023-05-10T11:23:52.960Z,7.60
2023-05-10T11:26:24.326Z,9.20
2023-05-10T11:28:57.415Z,8.80
2023-05-10T11:31:28.084Z,8.23
2023-05-10T11:34:02.999Z,7.78
2023-05-10T11:36:37.296Z,7.78
2023-05-10T11:39:07.912Z,8.35
2023-05-10T11:41:36.483Z,8.32
2023-05-10T11:44:07.677Z,8.48
2023-05-10T11:46:36.010Z,7.30
2023-05-10T11:49:08.083Z,6.95
2023-05-10T11:51:37.860Z,6.93
2023-05-10T11:54:11.662Z,4.88
2023-05-10T11:56:43.286Z,7.82
2023-05-10T11:59:12.384Z,9.00
2023-05-10T12:01:41.550Z,10.05
2023-05-10T12:04:12.828Z,10.25
2023-05-10T12:06:43.388Z,11.18
2023-05-10T12:09:12.885Z,10.05
2023-05-10T12:11:44.514Z,14.27
2023-05-10T12:14:14.372Z,19.48
2023-05-10T12:16:45.939Z,15.38
2023-05-10T12:19:21.591Z,19.83
2023-05-10T12:21:49.947Z,17.70
2023-05-10T12:24:18.977Z,16.58
2023-05-10T12:26:49.392Z,15.25
2023-05-10T12:29:21.260Z,18.85
2023-05-10T12:31:55.101Z,15.38
2023-05-10T12:34:33.566Z,16.08
2023-05-10T12:37:03.716Z,14.40
2023-05-10T12:39:43.591Z,15.55
2023-05-10T12:44:43.064Z,12.63
2023-05-10T12:47:11.741Z,14.32
2023-05-10T12:49:42.899Z,12.38
2023-05-10T12:52:11.017Z,18.75
2023-05-10T12:54:40.381Z,16.17
2023-05-10T12:57:09.835Z,14.85
2023-05-10T12:59:40.474Z,15.43
2023-05-10T13:02:12.260Z,16.25
2023-05-10T13:04:41.929Z,12.20
2023-05-10T13:07:10.460Z,14.07
2023-05-10T13:09:38.669Z,15.38
2023-05-10T13:12:10.127Z,14.23
2023-05-10T13:14:41.505Z,12.90
2023-05-10T13:17:12.266Z,10.73
2023-05-10T13:19:43.167Z,12.20
2023-05-10T13:22:13.027Z,14.25
2023-05-10T13:24:42.816Z,13.32
2023-05-10T13:27:11.107Z,12.77
2023-05-10T13:29:39.338Z,16.05
2023-05-10T13:32:08.045Z,14.00
2023-05-10T13:34:38.883Z,12.52
2023-05-10T13:37:11.313Z,13.13
2023-05-10T13:39:39.529Z,14.02
2023-05-10T13:42:07.752Z,16.25
2023-05-10T13:44:37.309Z,9.43
2023-05-10T13:47:06.834Z,8.35
2023-05-10T13:49:37.166Z,8.27
2023-05-10T13:52:07.861Z,9.15
2023-05-10T13:54:38.024Z,9.60
2023-05-10T13:57:07.532Z,8.25
2023-05-10T13:59:36.918Z,9.30
2023-05-10T14:04:34.838Z,8.77
2023-05-10T14:07:04.310Z,9.13
2023-05-10T14:09:32.564Z,8.73
2023-05-10T14:14:32.471Z,7.50
2023-05-10T14:17:01.415Z,11.57
2023-05-10T14:19:31.652Z,10.18
2023-05-10T14:22:01.444Z,9.88
2023-05-10T14:24:31.145Z,10.05
2023-05-10T14:27:00.953Z,10.35
2023-05-10T14:29:30.575Z,11.75
2023-05-10T14:32:00.511Z,11.18
2023-05-10T14:34:28.979Z,13.40
2023-05-10T14:36:58.411Z,9.95
2023-05-10T14:39:26.706Z,11.95
2023-05-10T14:41:56.237Z,16.17
2023-05-10T14:44:26.035Z,10.95
2023-05-10T14:46:58.853Z,17.08
2023-05-10T14:49:29.064Z,11.82
2023-05-10T14:51:58.462Z,10.63
2023-05-10T14:54:28.178Z,12.00
2023-05-10T14:56:57.660Z,10.90
2023-05-10T14:59:27.521Z,12.55
2023-05-10T15:01:57.700Z,13.13
2023-05-10T15:04:28.541Z,12.88
2023-05-10T15:07:00.523Z,12.05
2023-05-10T15:09:31.462Z,12.93
2023-05-10T15:12:01.556Z,11.48
2023-05-10T15:14:31.380Z,10.60
2023-05-10T15:17:03.471Z,10.63
2023-05-10T15:19:31.685Z,10.77
2023-05-10T15:22:01.203Z,13.60
2023-05-10T15:24:30.656Z,9.80
2023-05-10T15:29:27.509Z,10.27
2023-05-10T15:31:56.816Z,12.18
2023-05-10T15:34:26.741Z,11.85
2023-05-10T15:36:56.691Z,13.40
2023-05-10T15:39:25.092Z,13.85
2023-05-10T15:41:55.657Z,13.40
2023-05-10T15:44:25.286Z,15.32
2023-05-10T15:46:54.629Z,16.45
2023-05-10T15:49:24.310Z,16.55
2023-05-10T15:51:56.299Z,18.52
2023-05-10T15:54:26.199Z,21.45
2023-05-10T15:56:55.092Z,14.27
2023-05-10T15:59:26.080Z,21.13
2023-05-10T16:01:54.605Z,16.55
2023-05-10T16:04:25.694Z,18.70
2023-05-10T16:06:56.508Z,19.02
2023-05-10T16:09:25.826Z,24.55
2023-05-10T16:11:55.633Z,23.27
2023-05-10T16:14:26.502Z,23.98
2023-05-10T16:16:54.808Z,32.08
2023-05-10T16:21:53.605Z,28.90
2023-05-10T16:24:24.422Z,19.48
2023-05-10T16:26:54.356Z,22.08
2023-05-10T16:29:24.132Z,19.80
2023-05-10T16:31:53.481Z,14.45
2023-05-10T16:34:25.374Z,19.30
2023-05-10T16:36:53.657Z,20.52
2023-05-10T16:39:22.073Z,19.83
2023-05-10T16:44:22.982Z,17.77
2023-05-10T16:46:55.994Z,14.40
2023-05-10T16:49:26.478Z,19.50
2023-05-10T16:51:56.151Z,15.40
2023-05-10T16:54:26.025Z,14.30
2023-05-10T16:56:55.483Z,16.15
2023-05-10T16:59:23.737Z,15.10
2023-05-10T17:01:54.120Z,14.27
2023-05-10T17:04:22.693Z,12.43
2023-05-10T17:06:52.131Z,14.10
2023-05-10T17:09:23.005Z,16.42
2023-05-10T17:11:51.440Z,12.27
2023-05-10T17:14:22.382Z,13.25
2023-05-10T17:16:52.611Z,19.88
2023-05-10T17:19:24.884Z,22.42
2023-05-10T17:21:56.175Z,11.32
2023-05-10T17:24:28.192Z,13.55
2023-05-10T17:26:57.804Z,13.10
2023-05-10T17:29:30.348Z,16.92
2023-05-10T17:32:00.134Z,18.92
2023-05-10T17:34:30.795Z,30.10
2023-05-10T17:37:00.751Z,14.30
2023-05-10T17:39:29.022Z,19.35
2023-05-10T17:41:59.992Z,12.20
2023-05-10T17:44:29.414Z,14.70
2023-05-10T17:46:58.752Z,14.20
2023-05-10T17:49:29.124Z,11.10
2023-05-10T17:51:58.492Z,11.20
2023-05-10T17:54:26.666Z,15.23
2023-05-10T17:56:56.130Z,17.63
2023-05-10T17:59:24.330Z,20.80
2023-05-10T18:01:56.239Z,21.60
2023-05-10T18:04:24.507Z,23.35
2023-05-10T18:07:00.862Z,29.70
2023-05-10T18:09:30.973Z,22.40
2023-05-10T18:12:00.668Z,25.20
2023-05-10T18:17:12.002Z,27.17
2023-05-10T18:19:40.730Z,25.48
2023-05-10T18:22:10.859Z,28.25
2023-05-10T18:24:41.585Z,31.48
2023-05-10T18:27:10.322Z,32.92
2023-05-10T18:29:38.565Z,35.15
2023-05-10T18:32:08.226Z,33.67
2023-05-10T18:34:38.979Z,36.97
2023-05-10T18:37:10.788Z,38.65
2023-05-10T18:39:39.194Z,43.60
2023-05-10T18:44:37.290Z,32.65
2023-05-10T18:47:08.852Z,41.97
2023-05-10T18:49:38.915Z,37.80
2023-05-10T18:52:09.409Z,43.72
2023-05-10T18:54:38.870Z,50.25
2023-05-10T18:57:08.288Z,40.40
2023-05-10T18:59:36.439Z,42.78
2023-05-10T19:02:07.143Z,47.60
2023-05-10T19:04:35.476Z,47.08
2023-05-10T19:07:06.224Z,51.40
2023-05-10T19:09:34.805Z,48.85
2023-05-10T19:12:04.139Z,42.85
2023-05-10T19:14:33.840Z,34.58
2023-05-10T19:17:03.324Z,33.13
2023-05-10T19:19:32.262Z,39.90
2023-05-10T19:22:01.042Z,38.75
2023-05-10T19:24:30.768Z,46.35
2023-05-10T19:27:02.051Z,43.70
2023-05-10T19:29:32.741Z,42.10
2023-05-10T19:32:02.139Z,47.78
2023-05-10T19:34:32.790Z,42.35
2023-05-10T19:37:02.623Z,38.72
2023-05-10T19:39:33.199Z,43.22
2023-05-10T19:42:01.702Z,48.80
2023-05-10T19:47:01.428Z,41.15
2023-05-10T19:49:29.590Z,42.60
2023-05-10T19:51:58.973Z,49.22
2023-05-10T19:54:27.107Z,50.03
2023-05-10T19:57:00.290Z,50.08
2023-05-10T19:59:29.710Z,44.60
2023-05-10T20:02:00.324Z,45.08
2023-05-10T20:04:30.591Z,54.03
2023-05-10T20:06:59.915Z,58.30
2023-05-10T20:09:28.026Z,66.22
2023-05-10T20:11:58.703Z,56.33
2023-05-10T20:14:28.116Z,72.40
2023-05-10T20:16:57.592Z,58.88
2023-05-10T20:19:28.496Z,57.22
2023-05-10T20:21:58.777Z,53.70
2023-05-10T20:24:28.694Z,53.45
2023-05-10T20:26:59.829Z,46.30
2023-05-10T20:29:29.458Z,50.42
2023-05-10T20:31:58.836Z,52.17
2023-05-10T20:34:29.772Z,49.47
2023-05-10T20:36:58.304Z,63.60
2023-05-10T20:39:30.186Z,58.33
2023-05-10T20:42:00.280Z,56.75
2023-05-10T20:44:28.834Z,56.03
2023-05-10T20:46:57.227Z,62.10
2023-05-10T20:51:56.554Z,51.45
2023-05-10T20:54:25.360Z,67.40
2023-05-10T20:56:55.917Z,74.13
2023-05-10T20:59:25.295Z,75.47
2023-05-10T21:01:54.782Z,125.13
2023-05-10T21:04:22.966Z,67.93
2023-05-10T21:06:54.143Z,65.65
2023-05-10T21:09:23.756Z,70.00
2023-05-10T21:11:54.983Z,76.47
2023-05-10T21:14:26.097Z,92.35
2023-05-10T21:16:55.428Z,81.57
2023-05-10T21:19:24.728Z,76.88
2023-05-10T21:21:55.982Z,63.95
2023-05-10T21:24:24.681Z,77.65
2023-05-10T21:26:54.067Z,67.38
2023-05-10T21:29:22.388Z,70.88
2023-05-10T21:31:54.385Z,84.47
2023-05-10T21:34:23.673Z,70.70
2023-05-10T21:36:52.215Z,72.47
2023-05-10T21:39:20.375Z,58.20
2023-05-10T21:41:49.613Z,68.00
2023-05-10T21:44:21.095Z,66.65
2023-05-10T21:46:51.824Z,81.82
2023-05-10T21:49:21.303Z,69.82
2023-05-10T21:51:50.642Z,62.92
2023-05-10T21:54:19.202Z,60.53
2023-05-10T21:56:47.722Z,66.00
2023-05-10T21:59:18.035Z,69.20
2023-05-10T22:01:46.556Z,66.90
2023-05-10T22:04:17.269Z,68.70
2023-05-10T22:06:46.570Z,66.90
2023-05-10T22:09:16.271Z,59.85
2023-05-10T22:14:15.145Z,61.88
2023-05-10T22:16:45.645Z,66.47
2023-05-10T22:19:16.390Z,85.43
2023-05-10T22:21:45.740Z,78.32
2023-05-10T22:24:13.922Z,80.07
2023-05-10T22:26:44.484Z,74.05
2023-05-10T22:29:14.167Z,67.15
2023-05-10T22:31:45.195Z,72.78
2023-05-10T22:34:13.838Z,64.82
2023-05-10T22:39:13.796Z,73.22
2023-05-10T22:41:43.236Z,64.10
2023-05-10T22:44:12.598Z,76.30
2023-05-10T22:46:40.692Z,59.35
2023-05-10T22:49:11.801Z,75.95
2023-05-10T22:51:39.985Z,80.80
2023-05-10T22:54:10.719Z,62.47
2023-05-10T22:56:38.943Z,74.35
2023-05-10T22:59:09.585Z,79.82
2023-05-10T23:01:38.201Z,76.93
2023-05-10T23:04:07.291Z,79.07
2023-05-10T23:06:35.549Z,70.53
2023-05-10T23:09:06.255Z,67.35
2023-05-10T23:11:35.669Z,65.70
2023-05-10T23:14:05.460Z,71.05
2023-05-10T23:16:35.231Z,75.93
2023-05-10T23:19:03.446Z,84.68
2023-05-10T23:21:34.040Z,67.55
2023-05-10T23:24:02.641Z,82.13
2023-05-10T23:26:30.853Z,84.57
2023-05-10T23:29:01.742Z,100.15
2023-05-10T23:31:32.471Z,88.10
2023-05-10T23:34:03.365Z,90.88
2023-05-10T23:36:34.706Z,87.72
2023-05-10T23:39:03.167Z,113.75
2023-05-10T23:41:34.072Z,98.30
2023-05-10T23:44:03.679Z,94.45
2023-05-10T23:46:31.831Z,107.25
2023-05-10T23:49:02.402Z,104.22
2023-05-10T23:51:31.706Z,118.15
2023-05-10T23:54:02.570Z,102.72
2023-05-10T23:56:31.223Z,124.20
2023-05-10T23:59:01.716Z,97.75
